Time;durP1;ratioP1;P1;durP2;ratioP2;P2;SDS_P1;SDS_P2;PMS_P1;PMS_P2;Temp;Humidity;BMP_temperature;BMP_pressure;BME280_temperature;BME280_humidity;BME280_pressure;Samples;Min_cycle;Max_cycle;Signal;HPM_P1;HPM_P2
2023/08/19 00:01:30;;;;;;;3.08;2.78;;;27.30;61.10;;;;;;5113410;28;20055;-72
2023/08/19 00:03:55;;;;;;;3.30;3.00;;;27.30;61.20;;;;;;5113532;28;20028;-71
2023/08/19 00:06:35;;;;;;;3.40;3.10;;;27.30;61.30;;;;;;5114350;28;20110;-72
2023/08/19 00:09:04;;;;;;;6.20;3.30;;;27.30;61.40;;;;;;5114756;28;20427;-71
2023/08/19 00:11:32;;;;;;;4.03;3.53;;;27.30;61.40;;;;;;5114751;28;20058;-71
2023/08/19 00:13:57;;;;;;;3.30;3.00;;;27.30;61.40;;;;;;5113392;28;20507;-71
2023/08/19 00:16:23;;;;;;;3.17;2.88;;;27.30;61.50;;;;;;5112927;28;20051;-71
2023/08/19 00:18:49;;;;;;;3.85;3.15;;;27.20;61.40;;;;;;5114599;28;20024;-71
2023/08/19 00:21:16;;;;;;;3.50;2.90;;;27.20;61.50;;;;;;5113076;28;20052;-71
2023/08/19 00:23:42;;;;;;;3.50;3.20;;;27.20;61.50;;;;;;5113138;28;20405;-71
2023/08/19 00:26:11;;;;;;;3.33;2.90;;;27.20;61.50;;;;;;5113729;28;20039;-71
2023/08/19 00:28:37;;;;;;;3.58;3.20;;;27.20;61.60;;;;;;5112465;28;20047;-71
2023/08/19 00:31:03;;;;;;;3.38;2.83;;;27.20;61.60;;;;;;5114485;28;20034;-73
2023/08/19 00:33:28;;;;;;;3.78;3.00;;;27.30;61.70;;;;;;5112732;28;20114;-71
2023/08/19 00:35:54;;;;;;;3.35;3.05;;;27.30;61.70;;;;;;5112278;28;20024;-71
2023/08/19 00:38:20;;;;;;;3.53;3.05;;;27.20;61.60;;;;;;5113585;28;20031;-71
2023/08/19 00:40:46;;;;;;;3.28;2.78;;;27.20;61.70;;;;;;5114102;28;20035;-71
2023/08/19 00:43:13;;;;;;;3.17;2.88;;;27.20;61.70;;;;;;5111824;28;20026;-70
2023/08/19 00:45:44;;;;;;;3.22;2.90;;;27.20;61.80;;;;;;5112574;28;20053;-71
2023/08/19 00:48:11;;;;;;;3.38;3.08;;;27.20;61.70;;;;;;5113410;28;20035;-71
2023/08/19 00:50:39;;;;;;;4.63;2.85;;;27.20;61.80;;;;;;5111461;28;20023;-71
2023/08/19 00:53:06;;;;;;;3.17;2.90;;;27.30;61.90;;;;;;5112994;28;20028;-72
2023/08/19 00:55:33;;;;;;;3.20;2.90;;;27.30;61.80;;;;;;5104638;28;20019;-72
2023/08/19 00:58:01;;;;;;;3.00;2.70;;;27.30;61.90;;;;;;5114307;28;20106;-71
2023/08/19 01:00:31;;;;;;;3.00;2.70;;;27.30;61.90;;;;;;5111462;28;20027;-72
2023/08/19 01:02:57;;;;;;;3.72;2.92;;;27.30;61.90;;;;;;5112453;28;20039;-72
2023/08/19 01:05:34;;;;;;;3.35;2.88;;;27.30;61.90;;;;;;5111793;28;20520;-72
2023/08/19 01:08:01;;;;;;;3.40;3.10;;;27.30;61.90;;;;;;5112139;28;20035;-71
2023/08/19 01:10:48;;;;;;;3.30;3.00;;;27.20;61.90;;;;;;5112824;28;20059;-71
2023/08/19 01:13:15;;;;;;;5.10;3.20;;;27.20;61.90;;;;;;5111529;28;20024;-72
2023/08/19 01:15:57;;;;;;;3.30;3.00;;;27.20;61.90;;;;;;5113300;28;20103;-70
2023/08/19 01:18:24;;;;;;;3.35;3.05;;;27.20;62.00;;;;;;5112930;28;20142;-70
2023/08/19 01:20:50;;;;;;;3.30;3.00;;;27.20;62.00;;;;;;5110932;28;20055;-71
2023/08/19 01:23:43;;;;;;;3.10;2.83;;;27.20;62.00;;;;;;5112677;28;20027;-71
2023/08/19 01:26:09;;;;;;;3.33;3.00;;;27.20;62.30;;;;;;5098787;28;20036;-71
2023/08/19 01:28:35;;;;;;;2.85;2.65;;;27.20;62.10;;;;;;5111645;28;20046;-70
2023/08/19 01:31:00;;;;;;;3.72;3.00;;;27.20;62.20;;;;;;5113410;28;20027;-71
2023/08/19 01:33:26;;;;;;;3.28;2.90;;;27.20;62.20;;;;;;5112710;28;20032;-71
2023/08/19 01:36:10;;;;;;;3.45;3.15;;;27.10;62.20;;;;;;5113220;28;20042;-70
2023/08/19 01:38:54;;;;;;;;;;;27.10;62.30;;;;;;5106200;28;20028;-70
2023/08/19 01:41:26;;;;;;;3.03;2.83;;;27.10;62.60;;;;;;5112593;28;20430;-70
2023/08/19 01:43:52;;;;;;;3.55;3.22;;;27.10;62.10;;;;;;5111981;28;20487;-71
2023/08/19 01:46:19;;;;;;;4.05;3.47;;;27.10;62.20;;;;;;5112802;28;20032;-70
2023/08/19 01:48:45;;;;;;;3.50;3.20;;;27.10;62.20;;;;;;5112922;28;20114;-70
2023/08/19 01:51:11;;;;;;;3.50;3.15;;;27.10;62.30;;;;;;5111472;28;20469;-72
2023/08/19 01:53:36;;;;;;;3.67;3.35;;;27.10;62.40;;;;;;5111034;28;20114;-71
2023/08/19 01:56:03;;;;;;;4.13;3.40;;;27.10;62.40;;;;;;5112914;28;20423;-71
2023/08/19 01:58:28;;;;;;;4.63;3.40;;;27.10;62.50;;;;;;5112451;28;20044;-71
2023/08/19 02:00:54;;;;;;;3.47;3.10;;;27.10;62.50;;;;;;5112718;28;20070;-71
2023/08/19 02:03:20;;;;;;;3.30;3.00;;;27.10;62.60;;;;;;5112308;28;20110;-70
2023/08/19 02:05:45;;;;;;;3.45;3.10;;;27.00;62.60;;;;;;5111320;28;20567;-70
2023/08/19 02:08:11;;;;;;;3.40;3.10;;;27.00;62.60;;;;;;5112001;28;20067;-71
2023/08/19 02:10:36;;;;;;;3.35;3.00;;;27.00;62.60;;;;;;5111324;28;20054;-70
2023/08/19 02:13:02;;;;;;;3.30;3.00;;;27.00;62.70;;;;;;5112318;28;20043;-72
2023/08/19 02:15:28;;;;;;;3.30;3.00;;;26.90;62.70;;;;;;5112067;28;20405;-71
2023/08/19 02:17:53;;;;;;;3.50;3.20;;;26.90;62.80;;;;;;5112375;28;20064;-71
2023/08/19 02:20:19;;;;;;;3.53;3.20;;;26.90;63.50;;;;;;5113631;28;20091;-71
2023/08/19 02:22:45;;;;;;;3.42;3.13;;;26.90;63.00;;;;;;5116686;28;20027;-71
2023/08/19 02:25:10;;;;;;;3.97;2.97;;;26.90;63.00;;;;;;5116269;28;20027;-71
2023/08/19 02:27:38;;;;;;;3.63;3.20;;;26.90;63.00;;;;;;5114285;28;20469;-71
2023/08/19 02:30:05;;;;;;;3.53;3.15;;;26.90;63.10;;;;;;5114705;28;20118;-72
2023/08/19 02:32:30;;;;;;;3.88;3.10;;;26.90;63.10;;;;;;5114694;28;20023;-71
2023/08/19 02:34:56;;;;;;;3.40;3.10;;;26.90;63.20;;;;;;5115527;28;20038;-71
2023/08/19 02:37:22;;;;;;;3.53;3.13;;;26.80;63.20;;;;;;5115350;28;20050;-71
2023/08/19 02:39:47;;;;;;;3.35;3.05;;;26.80;63.20;;;;;;5115990;28;20016;-71
2023/08/19 02:42:16;;;;;;;4.53;3.25;;;26.80;63.30;;;;;;5115654;28;20097;-72
2023/08/19 02:44:43;;;;;;;3.78;3.47;;;26.80;63.40;;;;;;5116507;27;20521;-71
2023/08/19 02:47:08;;;;;;;3.50;3.00;;;26.80;64.00;;;;;;5114529;28;20061;-72
2023/08/19 02:49:34;;;;;;;3.70;3.40;;;26.80;63.50;;;;;;5115619;28;20036;-71
2023/08/19 02:52:00;;;;;;;4.15;3.13;;;26.80;63.50;;;;;;5115056;28;20028;-71
2023/08/19 02:54:25;;;;;;;3.67;3.22;;;26.80;63.50;;;;;;5115300;28;20038;-71
2023/08/19 02:56:51;;;;;;;4.10;3.20;;;26.80;63.60;;;;;;5115344;28;20034;-71
2023/08/19 02:59:17;;;;;;;3.60;3.20;;;26.80;63.60;;;;;;5113769;28;20538;-71
2023/08/19 03:01:43;;;;;;;3.60;3.30;;;26.80;63.60;;;;;;5114448;28;20425;-71
2023/08/19 03:04:08;;;;;;;3.15;2.85;;;26.80;63.60;;;;;;5115080;28;20051;-71
2023/08/19 03:06:34;;;;;;;3.75;3.20;;;26.80;63.60;;;;;;5114003;28;20023;-71
2023/08/19 03:08:59;;;;;;;3.88;3.47;;;26.80;63.70;;;;;;5115681;28;20044;-71
2023/08/19 03:11:25;;;;;;;3.63;3.30;;;26.80;63.70;;;;;;5115042;28;20055;-71
2023/08/19 03:13:50;;;;;;;3.65;3.35;;;26.80;63.80;;;;;;5114274;28;20115;-71
2023/08/19 03:16:16;;;;;;;3.60;3.30;;;26.80;63.80;;;;;;5113590;28;20476;-71
2023/08/19 03:18:42;;;;;;;3.75;3.35;;;26.80;63.80;;;;;;5115210;28;20032;-71
2023/08/19 03:21:08;;;;;;;3.90;3.50;;;26.80;63.80;;;;;;5113761;28;20035;-72
2023/08/19 03:23:33;;;;;;;4.75;3.47;;;26.80;63.90;;;;;;5114035;28;20027;-72
2023/08/19 03:25:59;;;;;;;3.58;3.00;;;26.80;64.00;;;;;;5115555;28;20023;-71
2023/08/19 03:28:25;;;;;;;4.70;3.75;;;26.70;63.90;;;;;;5114332;28;20031;-71
2023/08/19 03:30:51;;;;;;;4.63;3.60;;;26.80;64.00;;;;;;5113680;28;20080;-71
2023/08/19 03:33:17;;;;;;;4.05;3.38;;;26.70;64.00;;;;;;5114598;28;20465;-71
2023/08/19 03:35:42;;;;;;;3.50;3.20;;;26.70;64.10;;;;;;5114676;28;20035;-71
2023/08/19 03:38:08;;;;;;;3.63;3.33;;;26.70;64.20;;;;;;5114519;28;20523;-71
2023/08/19 03:40:34;;;;;;;3.40;3.10;;;26.70;64.20;;;;;;5116043;28;20110;-71
2023/08/19 03:42:59;;;;;;;3.80;3.50;;;26.70;64.20;;;;;;5116144;28;20023;-70
2023/08/19 03:45:25;;;;;;;3.83;3.33;;;26.70;64.20;;;;;;5116135;28;20019;-71
2023/08/19 03:47:51;;;;;;;4.22;3.22;;;26.70;64.20;;;;;;5115236;28;20130;-71
2023/08/19 03:50:16;;;;;;;5.15;3.50;;;26.70;64.30;;;;;;5115773;28;20059;-71
2023/08/19 03:52:42;;;;;;;4.43;3.55;;;26.70;64.40;;;;;;5115889;28;20118;-71
2023/08/19 03:55:08;;;;;;;3.85;3.47;;;26.70;64.40;;;;;;5115698;28;20031;-71
2023/08/19 03:57:34;;;;;;;3.42;3.13;;;26.70;64.40;;;;;;5115479;28;20027;-72
2023/08/19 03:59:59;;;;;;;3.85;3.47;;;26.70;64.50;;;;;;5113703;28;20076;-71
2023/08/19 04:02:25;;;;;;;3.30;3.00;;;26.70;64.50;;;;;;5113799;28;20032;-71
2023/08/19 04:05:03;;;;;;;4.68;3.45;;;26.70;64.50;;;;;;5115148;28;20498;-71
2023/08/19 04:07:29;;;;;;;4.13;3.22;;;26.70;64.50;;;;;;5115474;28;20020;-71
2023/08/19 04:09:55;;;;;;;3.78;3.38;;;26.70;64.50;;;;;;5131084;27;20051;-71
2023/08/19 04:12:22;;;;;;;5.78;3.72;;;26.70;64.50;;;;;;5115642;28;20049;-71
2023/08/19 04:14:48;;;;;;;3.80;3.40;;;26.70;64.60;;;;;;5115250;28;20023;-71
2023/08/19 04:17:14;;;;;;;4.65;3.90;;;26.70;64.70;;;;;;5115000;28;20024;-72
2023/08/19 04:19:40;;;;;;;3.95;3.55;;;26.70;64.70;;;;;;5114734;28;20024;-71
2023/08/19 04:22:05;;;;;;;4.63;3.33;;;26.70;64.80;;;;;;5115023;28;20118;-70
2023/08/19 04:24:32;;;;;;;4.13;3.30;;;26.70;64.80;;;;;;5115009;28;20106;-71
2023/08/19 04:26:59;;;;;;;3.92;3.40;;;26.70;64.80;;;;;;5113789;28;20027;-71
2023/08/19 04:29:26;;;;;;;4.57;3.50;;;26.70;64.80;;;;;;5114725;28;20386;-71
2023/08/19 04:31:51;;;;;;;3.70;3.40;;;26.80;64.90;;;;;;5112676;28;20027;-70
2023/08/19 04:34:17;;;;;;;3.88;3.47;;;26.80;64.80;;;;;;5114951;28;20070;-70
2023/08/19 04:36:43;;;;;;;4.60;3.70;;;26.80;64.80;;;;;;5114291;28;20478;-71
2023/08/19 04:39:09;;;;;;;3.90;3.50;;;26.80;64.80;;;;;;5114562;28;20092;-71
2023/08/19 04:41:35;;;;;;;4.00;3.50;;;26.80;64.80;;;;;;5114407;28;20059;-71
2023/08/19 04:44:00;;;;;;;3.63;3.33;;;26.80;64.90;;;;;;5112671;28;20069;-71
2023/08/19 04:46:26;;;;;;;4.10;3.67;;;26.80;64.90;;;;;;5114091;28;20153;-72
2023/08/19 04:48:51;;;;;;;3.50;3.20;;;26.80;65.00;;;;;;5115024;28;20039;-71
2023/08/19 04:51:17;;;;;;;4.00;3.58;;;26.80;65.00;;;;;;5113244;28;20027;-71
2023/08/19 04:53:43;;;;;;;4.55;3.83;;;26.80;65.00;;;;;;5114601;28;20031;-71
2023/08/19 04:56:08;;;;;;;3.80;3.40;;;26.80;65.00;;;;;;5114325;28;20033;-72
2023/08/19 04:58:35;;;;;;;3.80;3.40;;;26.80;65.00;;;;;;5114478;28;20036;-71
2023/08/19 05:01:00;;;;;;;4.00;3.55;;;26.80;65.10;;;;;;5113844;28;20028;-72
2023/08/19 05:03:26;;;;;;;4.28;3.88;;;26.80;65.10;;;;;;5114160;28;20023;-71
2023/08/19 05:05:51;;;;;;;4.22;3.72;;;26.80;65.20;;;;;;5114497;28;20036;-71
2023/08/19 05:08:17;;;;;;;4.13;3.72;;;26.80;65.20;;;;;;5114105;28;20130;-73
2023/08/19 05:10:43;;;;;;;4.40;3.70;;;26.80;65.20;;;;;;5114491;28;20134;-72
2023/08/19 05:13:09;;;;;;;4.40;3.60;;;26.80;65.30;;;;;;5114053;28;20102;-71
2023/08/19 05:15:35;;;;;;;3.97;3.58;;;26.80;65.40;;;;;;5113870;28;20020;-71
2023/08/19 05:18:01;;;;;;;3.88;3.45;;;26.80;65.50;;;;;;5114466;28;20052;-73
2023/08/19 05:20:27;;;;;;;3.92;3.60;;;26.80;65.50;;;;;;5114469;28;20106;-72
2023/08/19 05:22:52;;;;;;;3.90;3.50;;;26.90;66.10;;;;;;5113915;28;20030;-72
2023/08/19 05:25:18;;;;;;;3.75;3.45;;;26.90;65.50;;;;;;5114292;28;20157;-70
2023/08/19 05:27:44;;;;;;;6.22;3.80;;;27.00;65.50;;;;;;5113715;28;20481;-72
2023/08/19 05:30:10;;;;;;;3.88;3.40;;;27.00;65.40;;;;;;5111464;28;20019;-73
2023/08/19 05:32:35;;;;;;;3.70;3.17;;;27.00;65.40;;;;;;5111156;28;20020;-76
2023/08/19 05:35:01;;;;;;;3.90;3.50;;;27.00;65.40;;;;;;5117390;27;20054;-73
2023/08/19 05:37:27;;;;;;;3.90;3.50;;;27.00;65.40;;;;;;5112621;28;20403;-73
2023/08/19 05:39:53;;;;;;;4.15;3.65;;;27.00;65.30;;;;;;5112377;28;20144;-75
2023/08/19 05:42:18;;;;;;;3.65;3.35;;;27.00;65.30;;;;;;5124782;27;20465;-73
2023/08/19 05:44:44;;;;;;;4.15;3.75;;;27.00;65.30;;;;;;5149544;27;20024;-73
2023/08/19 05:47:09;;;;;;;3.50;3.20;;;27.00;65.30;;;;;;5130564;27;20102;-74
2023/08/19 05:49:35;;;;;;;3.83;3.40;;;27.10;65.40;;;;;;5111986;28;20385;-73
2023/08/19 05:52:01;;;;;;;5.10;3.50;;;27.10;65.40;;;;;;5112086;28;20028;-73
2023/08/19 05:54:28;;;;;;;4.18;3.78;;;27.10;65.40;;;;;;5111966;28;20511;-73
2023/08/19 05:56:53;;;;;;;6.72;3.60;;;27.10;65.40;;;;;;5112622;28;20465;-73
2023/08/19 05:59:19;;;;;;;3.83;3.42;;;27.10;65.40;;;;;;5112436;28;20028;-73
2023/08/19 06:01:45;;;;;;;5.15;3.53;;;27.10;65.40;;;;;;5113740;28;20093;-74
2023/08/19 06:04:10;;;;;;;5.40;3.80;;;27.10;65.40;;;;;;5112438;28;20028;-74
2023/08/19 06:06:36;;;;;;;3.75;3.28;;;27.10;65.40;;;;;;5113919;28;20032;-74
2023/08/19 06:09:02;;;;;;;4.50;3.80;;;27.10;65.30;;;;;;5113237;28;20046;-74
2023/08/19 06:11:28;;;;;;;3.90;3.50;;;27.20;65.40;;;;;;5112993;28;20055;-74
2023/08/19 06:13:54;;;;;;;4.03;3.63;;;27.20;65.40;;;;;;5113082;28;20028;-75
2023/08/19 06:16:19;;;;;;;4.30;3.90;;;27.20;65.40;;;;;;5113558;28;20058;-72
2023/08/19 06:18:45;;;;;;;4.07;3.53;;;27.20;65.30;;;;;;5113201;28;20143;-73
2023/08/19 06:21:12;;;;;;;4.53;3.83;;;27.20;65.30;;;;;;5132657;27;20034;-75
2023/08/19 06:23:38;;;;;;;4.10;3.55;;;27.30;65.30;;;;;;5143747;27;20376;-74
2023/08/19 06:26:04;;;;;;;4.15;3.75;;;27.30;65.30;;;;;;5111580;28;20023;-74
2023/08/19 06:28:29;;;;;;;4.35;3.88;;;27.30;65.30;;;;;;5111882;28;20042;-73
2023/08/19 06:30:56;;;;;;;4.30;3.58;;;27.30;65.30;;;;;;5112931;28;20035;-73
2023/08/19 06:33:22;;;;;;;3.70;3.40;;;27.30;65.40;;;;;;5112339;28;20038;-74
2023/08/19 06:35:49;;;;;;;4.20;3.80;;;27.30;65.90;;;;;;5111944;28;20389;-73
2023/08/19 06:38:26;;;;;;;4.90;3.95;;;27.30;65.30;;;;;;5111826;28;20038;-73
2023/08/19 06:41:12;;;;;;;6.30;3.67;;;27.30;65.20;;;;;;5111546;28;20023;-74
2023/08/19 06:43:38;;;;;;;4.50;3.72;;;27.30;65.30;;;;;;5107332;28;20070;-71
2023/08/19 06:46:06;;;;;;;4.68;4.25;;;27.30;65.30;;;;;;5111522;28;20023;-74
2023/08/19 06:48:33;;;;;;;4.05;3.65;;;27.40;65.40;;;;;;5111628;28;20042;-72
2023/08/19 06:51:01;;;;;;;4.00;3.40;;;27.40;65.40;;;;;;5110360;28;20054;-73
2023/08/19 06:53:27;;;;;;;3.75;3.45;;;27.40;65.40;;;;;;5112728;28;20108;-72
2023/08/19 06:56:23;;;;;;;3.70;3.20;;;27.40;65.40;;;;;;5111852;28;20095;-73
2023/08/19 06:58:56;;;;;;;4.20;3.80;;;27.40;65.40;;;;;;5111458;28;20026;-72
2023/08/19 07:01:24;;;;;;;4.10;3.70;;;27.40;65.30;;;;;;5108601;28;20430;-73
2023/08/19 07:03:52;;;;;;;4.07;3.42;;;27.50;65.20;;;;;;5136516;27;20454;-73
2023/08/19 07:06:20;;;;;;;3.67;3.38;;;27.50;65.10;;;;;;5113100;28;20073;-73
2023/08/19 07:08:46;;;;;;;4.10;3.70;;;27.50;65.10;;;;;;5094135;28;20369;-72
2023/08/19 07:11:12;;;;;;;4.05;3.65;;;27.50;65.60;;;;;;5094681;28;20044;-71
2023/08/19 07:13:38;;;;;;;4.63;3.20;;;27.60;65.10;;;;;;5129727;27;20055;-72
2023/08/19 07:16:05;;;;;;;5.43;3.40;;;27.60;65.00;;;;;;5149886;27;20441;-71
2023/08/19 07:18:36;;;;;;;4.82;3.70;;;27.60;64.90;;;;;;5111815;27;20496;-72
2023/08/19 07:21:04;;;;;;;4.95;4.32;;;27.60;64.80;;;;;;5114719;28;20051;-72
2023/08/19 07:23:30;;;;;;;5.00;4.50;;;27.70;64.80;;;;;;5115880;28;20088;-74
2023/08/19 07:25:57;;;;;;;5.45;4.40;;;27.70;64.80;;;;;;5114853;28;20234;-72
2023/08/19 07:28:24;;;;;;;4.90;4.40;;;27.70;64.80;;;;;;5139150;27;20339;-76
2023/08/19 07:30:50;;;;;;;4.05;3.65;;;27.80;64.90;;;;;;5116006;28;20503;-78
2023/08/19 07:33:16;;;;;;;4.80;4.00;;;27.80;64.80;;;;;;5105676;28;20039;-73
2023/08/19 07:35:43;;;;;;;4.43;3.92;;;27.80;64.70;;;;;;5095822;28;20103;-74
2023/08/19 07:38:09;;;;;;;4.30;3.90;;;27.90;64.70;;;;;;5095425;28;20466;-75
2023/08/19 07:40:34;;;;;;;4.53;4.00;;;27.90;64.60;;;;;;5114823;28;20077;-72
2023/08/19 07:43:00;;;;;;;4.57;4.10;;;27.90;64.50;;;;;;5115862;28;20031;-72
2023/08/19 07:45:25;;;;;;;6.05;3.70;;;27.90;64.50;;;;;;5114073;28;20066;-76
2023/08/19 07:47:51;;;;;;;5.72;5.13;;;27.90;64.50;;;;;;5114388;27;20037;-76
2023/08/19 07:50:17;;;;;;;4.43;3.63;;;28.00;64.50;;;;;;5115139;27;20377;-74
2023/08/19 07:52:42;;;;;;;12.32;11.25;;;28.00;64.40;;;;;;5114779;28;20035;-72
2023/08/19 07:55:08;;;;;;;4.35;3.45;;;28.10;64.20;;;;;;5114774;28;20019;-72
2023/08/19 07:57:34;;;;;;;3.78;3.35;;;28.10;64.10;;;;;;5114536;28;20024;-72
2023/08/19 07:59:59;;;;;;;4.40;3.38;;;28.20;64.00;;;;;;5113923;28;20477;-73
2023/08/19 08:02:25;;;;;;;3.95;3.22;;;28.20;63.80;;;;;;5115142;28;20707;-70
2023/08/19 08:04:51;;;;;;;3.40;3.10;;;28.20;63.80;;;;;;5114200;28;20038;-71
2023/08/19 08:07:16;;;;;;;19.38;17.52;;;28.20;63.60;;;;;;5112354;28;20598;-80
2023/08/19 08:09:45;;;;;;;4.45;3.22;;;28.30;63.40;;;;;;5109614;28;20058;-83
2023/08/19 08:12:11;;;;;;;3.30;3.00;;;28.30;63.10;;;;;;5133223;27;20035;-80
2023/08/19 08:14:37;;;;;;;2.67;2.47;;;28.30;62.90;;;;;;5114031;28;20088;-74
2023/08/19 08:17:02;;;;;;;3.58;3.10;;;28.40;62.70;;;;;;5113171;28;20031;-74
2023/08/19 08:19:28;;;;;;;3.60;2.88;;;28.40;62.40;;;;;;5113280;28;20385;-74
2023/08/19 08:21:54;;;;;;;4.78;3.00;;;28.40;62.20;;;;;;5113376;28;20084;-74
2023/08/19 08:24:23;;;;;;;3.97;2.90;;;28.40;62.20;;;;;;5136930;27;20110;-74
2023/08/19 08:26:49;;;;;;;3.88;3.00;;;28.40;62.10;;;;;;5113448;28;20527;-74
2023/08/19 08:29:15;;;;;;;3.60;3.20;;;28.50;62.10;;;;;;5112409;28;20023;-76
2023/08/19 08:31:40;;;;;;;4.38;3.33;;;28.50;62.20;;;;;;5114078;28;20033;-77
2023/08/19 08:34:06;;;;;;;4.22;3.08;;;28.50;62.20;;;;;;5113673;28;20107;-74
2023/08/19 08:36:32;;;;;;;3.60;3.30;;;28.50;62.20;;;;;;5114533;27;20020;-75
2023/08/19 08:38:57;;;;;;;3.50;3.20;;;28.50;62.20;;;;;;5112286;28;20023;-76
2023/08/19 08:41:24;;;;;;;5.38;3.55;;;28.60;62.30;;;;;;5112853;28;20031;-71
2023/08/19 08:43:52;;;;;;;6.28;3.65;;;28.60;62.40;;;;;;5113622;28;20461;-70
2023/08/19 08:46:19;;;;;;;7.38;3.55;;;28.60;62.50;;;;;;5112970;28;20031;-73
2023/08/19 08:48:46;;;;;;;4.05;3.40;;;28.60;62.70;;;;;;5135146;27;20111;-73
2023/08/19 08:51:14;;;;;;;4.80;3.58;;;28.60;62.80;;;;;;5112288;28;20039;-74
2023/08/19 08:53:39;;;;;;;3.90;3.50;;;28.70;62.80;;;;;;5112881;28;20473;-72
2023/08/19 08:56:07;;;;;;;4.13;3.35;;;28.70;62.80;;;;;;5112958;28;20027;-71
2023/08/19 08:58:33;;;;;;;3.60;3.30;;;28.80;62.90;;;;;;5113052;28;20424;-74
2023/08/19 09:01:05;;;;;;;3.63;3.30;;;28.80;62.90;;;;;;5113041;28;20030;-74
2023/08/19 09:03:33;;;;;;;4.22;3.38;;;28.90;62.90;;;;;;5110679;28;20034;-74
2023/08/19 09:06:16;;;;;;;3.90;3.22;;;29.00;63.00;;;;;;5137771;27;20028;-75
2023/08/19 09:08:57;;;;;;;4.60;3.13;;;29.00;63.10;;;;;;5110233;28;20114;-75
2023/08/19 09:11:27;;;;;;;4.75;3.35;;;29.00;63.30;;;;;;5112207;28;20120;-74
2023/08/19 09:14:22;;;;;;;4.57;3.72;;;29.00;63.20;;;;;;5110288;28;20112;-68
2023/08/19 09:16:49;;;;;;;3.60;3.30;;;29.10;63.30;;;;;;5097258;28;20019;-67
2023/08/19 09:19:15;;;;;;;3.58;3.22;;;29.10;63.10;;;;;;5111449;28;20031;-67
2023/08/19 09:21:41;;;;;;;3.30;3.03;;;29.10;63.10;;;;;;5111730;28;20440;-68
2023/08/19 09:24:07;;;;;;;3.30;3.00;;;29.10;62.80;;;;;;5113284;28;20209;-67
2023/08/19 09:26:33;;;;;;;4.68;3.10;;;29.20;62.90;;;;;;5113954;28;20512;-69
2023/08/19 09:28:59;;;;;;;4.43;3.50;;;29.20;62.80;;;;;;5113207;28;20043;-67
2023/08/19 09:31:25;;;;;;;4.07;3.05;;;29.20;62.80;;;;;;5113583;28;20110;-68
2023/08/19 09:33:52;;;;;;;3.10;2.80;;;29.30;62.90;;;;;;5111952;28;20494;-69
2023/08/19 09:36:24;;;;;;;4.10;3.70;;;29.30;62.90;;;;;;5113272;28;20027;-68
2023/08/19 09:38:57;;;;;;;3.35;3.05;;;29.30;62.80;;;;;;5113435;28;20110;-69
2023/08/19 09:41:30;;;;;;;3.73;3.40;;;29.30;62.80;;;;;;5113060;28;20468;-69
2023/08/19 09:43:57;;;;;;;3.83;3.38;;;29.30;62.70;;;;;;5112260;28;20023;-68
2023/08/19 09:46:42;;;;;;;3.78;3.00;;;29.20;62.50;;;;;;5113239;28;20077;-68
2023/08/19 09:49:09;;;;;;;3.63;3.03;;;29.30;62.30;;;;;;5113369;28;20031;-67
2023/08/19 09:51:34;;;;;;;3.55;3.22;;;29.30;62.30;;;;;;5112996;28;20103;-67
2023/08/19 09:54:10;;;;;;;3.17;2.88;;;29.30;62.30;;;;;;5113337;28;20453;-67
2023/08/19 09:56:36;;;;;;;4.82;2.75;;;29.30;62.20;;;;;;5113929;28;20028;-67
2023/08/19 09:59:01;;;;;;;4.43;3.00;;;29.30;62.10;;;;;;5113304;28;20516;-68
2023/08/19 10:01:27;;;;;;;3.38;3.08;;;29.30;62.00;;;;;;5113350;28;20047;-68
2023/08/19 10:03:53;;;;;;;3.53;3.22;;;29.30;61.90;;;;;;5112333;28;20031;-68
2023/08/19 10:06:25;;;;;;;3.30;3.00;;;29.40;61.90;;;;;;5112710;28;20030;-68
2023/08/19 10:08:59;;;;;;;3.20;2.90;;;29.40;61.80;;;;;;5113999;28;20035;-68
2023/08/19 10:11:27;;;;;;;4.25;3.33;;;29.40;61.70;;;;;;5112678;28;20047;-68
2023/08/19 10:13:55;;;;;;;5.80;2.97;;;29.40;61.70;;;;;;5113661;28;20027;-68
2023/08/19 10:16:24;;;;;;;3.22;2.90;;;29.40;61.50;;;;;;5112942;28;20100;-68
2023/08/19 10:18:51;;;;;;;2.90;2.70;;;29.40;61.30;;;;;;5097673;28;20024;-68
2023/08/19 10:21:18;;;;;;;3.10;2.80;;;29.50;61.30;;;;;;5113367;28;20027;-68
2023/08/19 10:23:46;;;;;;;2.95;2.65;;;29.50;61.20;;;;;;5125569;28;20045;-68
2023/08/19 10:26:14;;;;;;;3.50;3.20;;;29.50;61.00;;;;;;5150343;27;20062;-68
2023/08/19 10:28:39;;;;;;;3.45;3.15;;;29.50;61.00;;;;;;5130861;27;20027;-67
2023/08/19 10:31:07;;;;;;;3.28;2.97;;;29.50;60.90;;;;;;5113470;28;20526;-67
2023/08/19 10:33:39;;;;;;;3.50;3.20;;;29.60;60.80;;;;;;5113508;28;20019;-67
2023/08/19 10:36:07;;;;;;;3.33;3.03;;;29.60;60.60;;;;;;5113582;28;20024;-67
2023/08/19 10:38:57;;;;;;;2.80;2.60;;;29.60;60.40;;;;;;5113385;28;20030;-67
2023/08/19 10:41:36;;;;;;;2.47;2.28;;;29.70;60.00;;;;;;5078790;28;20032;-67
2023/08/19 10:44:03;;;;;;;3.03;2.70;;;29.70;60.20;;;;;;5097090;28;20028;-67
2023/08/19 10:46:34;;;;;;;3.00;2.80;;;29.80;60.20;;;;;;5096596;28;20028;-67
2023/08/19 10:49:04;;;;;;;2.70;2.50;;;29.80;60.10;;;;;;5115629;28;20473;-67
2023/08/19 10:51:57;;;;;;;3.25;2.95;;;29.80;60.10;;;;;;5117030;28;20047;-67
2023/08/19 10:54:39;;;;;;;3.05;2.75;;;29.90;59.80;;;;;;5116628;28;20038;-67
2023/08/19 10:57:22;;;;;;;2.88;2.67;;;29.90;60.00;;;;;;5116632;28;20441;-67
2023/08/19 10:59:53;;;;;;;2.80;2.60;;;29.90;60.40;;;;;;5116758;28;20027;-67
2023/08/19 11:02:18;;;;;;;2.70;2.50;;;29.80;59.80;;;;;;5115813;28;20023;-67
2023/08/19 11:04:46;;;;;;;2.80;2.60;;;29.80;59.80;;;;;;5116556;28;20031;-68
2023/08/19 11:07:12;;;;;;;3.67;2.65;;;29.80;59.80;;;;;;5116675;28;20057;-68
2023/08/19 11:09:42;;;;;;;2.50;2.30;;;29.80;59.70;;;;;;5116068;28;20092;-68
2023/08/19 11:12:09;;;;;;;2.70;2.50;;;29.80;59.50;;;;;;5115457;28;20051;-68
2023/08/19 11:14:35;;;;;;;2.60;2.40;;;29.90;59.50;;;;;;5116489;28;20027;-68
2023/08/19 11:17:02;;;;;;;2.60;2.40;;;29.90;59.40;;;;;;5116769;28;20032;-68
2023/08/19 11:19:30;;;;;;;2.65;2.45;;;29.90;59.30;;;;;;5116156;28;20169;-68
2023/08/19 11:21:57;;;;;;;2.47;2.28;;;29.90;59.20;;;;;;5114931;28;20020;-68
2023/08/19 11:24:33;;;;;;;2.78;2.58;;;29.90;59.20;;;;;;5116189;28;20094;-68
2023/08/19 11:26:59;;;;;;;2.72;2.35;;;29.90;59.00;;;;;;5114697;27;20385;-68
2023/08/19 11:29:25;;;;;;;3.20;2.60;;;29.90;59.00;;;;;;5137222;27;20088;-68
2023/08/19 11:31:51;;;;;;;2.53;2.20;;;29.90;58.90;;;;;;5120551;27;20045;-68
2023/08/19 11:34:16;;;;;;;2.63;2.40;;;29.90;58.80;;;;;;5116621;28;20038;-68
2023/08/19 11:36:44;;;;;;;2.47;2.28;;;29.90;58.70;;;;;;5114910;28;20020;-68
2023/08/19 11:39:10;;;;;;;2.63;2.42;;;29.90;58.70;;;;;;5114684;28;20146;-67
2023/08/19 11:41:37;;;;;;;2.60;2.38;;;29.90;58.60;;;;;;5116621;28;20031;-67
2023/08/19 11:44:03;;;;;;;2.53;2.33;;;29.90;58.60;;;;;;5131035;27;20023;-67
2023/08/19 11:46:30;;;;;;;2.58;2.38;;;29.90;58.40;;;;;;5136718;27;20035;-68
2023/08/19 11:48:57;;;;;;;2.22;2.10;;;30.00;58.30;;;;;;5136395;27;20035;-67
2023/08/19 11:51:27;;;;;;;2.95;2.60;;;30.10;58.20;;;;;;5152211;27;20495;-68
2023/08/19 11:53:54;;;;;;;3.00;2.70;;;30.10;58.10;;;;;;5136409;27;20024;-67
2023/08/19 11:56:20;;;;;;;2.90;2.60;;;30.20;58.00;;;;;;5125441;27;20028;-67
2023/08/19 11:58:51;;;;;;;2.20;2.10;;;30.20;57.80;;;;;;5113926;28;20031;-69
2023/08/19 12:01:26;;;;;;;2.60;2.40;;;30.30;57.70;;;;;;5114584;28;20076;-68
2023/08/19 12:03:54;;;;;;;2.97;2.35;;;30.40;57.50;;;;;;5113640;28;20088;-69
2023/08/19 12:06:20;;;;;;;2.10;2.00;;;30.50;57.40;;;;;;5114341;28;20103;-68
2023/08/19 12:08:49;;;;;;;2.50;2.30;;;30.50;58.00;;;;;;5115680;28;20067;-69
2023/08/19 12:11:24;;;;;;;2.30;2.10;;;30.60;57.30;;;;;;5115129;28;20407;-68
2023/08/19 12:13:50;;;;;;;2.33;2.10;;;30.60;57.20;;;;;;5113967;28;20453;-67
2023/08/19 12:16:17;;;;;;;2.00;1.90;;;30.60;57.30;;;;;;5115343;28;20030;-67
2023/08/19 12:18:42;;;;;;;2.47;2.28;;;30.50;57.20;;;;;;5115209;28;20039;-67
2023/08/19 12:21:08;;;;;;;2.50;2.00;;;30.60;57.20;;;;;;5114606;28;20031;-67
2023/08/19 12:23:34;;;;;;;2.20;1.90;;;30.60;57.20;;;;;;5115062;28;20032;-68
2023/08/19 12:26:00;;;;;;;2.40;2.20;;;30.60;57.20;;;;;;5115602;27;20031;-68
2023/08/19 12:28:28;;;;;;;2.33;2.13;;;30.60;57.70;;;;;;5135565;27;20106;-68
2023/08/19 12:30:54;;;;;;;3.35;2.75;;;30.60;56.80;;;;;;5126136;27;20073;-67
2023/08/19 12:33:21;;;;;;;2.28;2.00;;;30.70;56.60;;;;;;5114803;28;20030;-67
2023/08/19 12:35:48;;;;;;;2.30;2.10;;;30.70;56.50;;;;;;5115272;28;20035;-67
2023/08/19 12:38:16;;;;;;;1.98;1.80;;;30.80;56.50;;;;;;5113655;28;20144;-67
2023/08/19 12:40:45;;;;;;;2.08;1.90;;;30.90;56.40;;;;;;5115117;28;20107;-68
2023/08/19 12:43:12;;;;;;;2.10;1.90;;;30.90;56.20;;;;;;5123824;27;20016;-68
2023/08/19 12:45:38;;;;;;;2.13;2.00;;;30.90;56.10;;;;;;5134083;27;20110;-68
2023/08/19 12:48:05;;;;;;;2.63;2.10;;;31.00;55.80;;;;;;5151273;27;20027;-67
2023/08/19 12:50:31;;;;;;;2.10;2.00;;;31.10;55.80;;;;;;5134085;27;20031;-67